Time;durP1;ratioP1;P1;durP2;ratioP2;P2;SDS_P1;SDS_P2;PMS_P1;PMS_P2;Temp;Humidity;BMP_temperature;BMP_pressure;BME280_temperature;BME280_humidity;BME280_pressure;Samples;Min_cycle;Max_cycle;Signal;HPM_P1;HPM_P2
2023/12/21 00:02:12;;;;;;;4.68;1.40;;;;;;;;;;5018164;28;93213;-79
2023/12/21 00:04:39;;;;;;;4.72;1.33;;;;;;;;;;4998007;28;92178;-79
2023/12/21 00:07:06;;;;;;;5.72;1.60;;;;;;;;;;4992491;28;92810;-80
2023/12/21 00:09:32;;;;;;;5.00;1.55;;;;;;;;;;4994524;28;92908;-80
2023/12/21 00:11:59;;;;;;;3.70;1.40;;;;;;;;;;5019611;28;92620;-81
2023/12/21 00:14:29;;;;;;;4.78;1.35;;;;;;;;;;5041535;28;99559;-79
2023/12/21 00:16:57;;;;;;;3.33;1.33;;;;;;;;;;5023156;27;92547;-80
2023/12/21 00:19:23;;;;;;;5.75;1.40;;;;;;;;;;5011660;27;92694;-79
2023/12/21 00:21:50;;;;;;;5.15;1.48;;;;;;;;;;5014448;28;95209;-79
2023/12/21 00:24:17;;;;;;;6.57;1.60;;;;;;;;;;5003637;27;92440;-79
2023/12/21 00:26:43;;;;;;;4.10;1.45;;;;;;;;;;5003158;28;92408;-80
2023/12/21 00:29:10;;;;;;;4.63;1.27;;;;;;;;;;5009099;28;95335;-80
2023/12/21 00:31:36;;;;;;;4.75;1.40;;;;;;;;;;5008736;28;92750;-79
2023/12/21 00:34:03;;;;;;;5.57;1.50;;;;;;;;;;4984563;28;94025;-79
2023/12/21 00:36:30;;;;;;;4.43;1.20;;;;;;;;;;5003856;28;95466;-80
2023/12/21 00:38:56;;;;;;;5.35;1.50;;;;;;;;;;5001352;28;95183;-80
2023/12/21 00:41:23;;;;;;;9.23;1.60;;;;;;;;;;5002345;28;93116;-79
2023/12/21 00:43:49;;;;;;;8.38;1.42;;;;;;;;;;5017049;28;92159;-80
2023/12/21 00:46:16;;;;;;;5.93;1.52;;;;;;;;;;5017820;27;94655;-80
2023/12/21 00:48:42;;;;;;;3.85;1.20;;;;;;;;;;5017434;27;92870;-79
2023/12/21 00:51:09;;;;;;;6.13;1.30;;;;;;;;;;5000766;28;92514;-79
2023/12/21 00:53:35;;;;;;;5.07;1.30;;;;;;;;;;5002755;28;93990;-80
2023/12/21 00:56:02;;;;;;;3.92;1.20;;;;;;;;;;5017443;27;93083;-79
2023/12/21 00:58:28;;;;;;;4.05;1.10;;;;;;;;;;5009286;28;92260;-79
2023/12/21 01:00:55;;;;;;;4.15;1.25;;;;;;;;;;5014857;28;92805;-79
2023/12/21 01:03:22;;;;;;;5.28;1.58;;;;;;;;;;4992968;28;91602;-79
2023/12/21 01:05:49;;;;;;;4.10;1.50;;;;;;;;;;5015032;28;92671;-78
2023/12/21 01:08:16;;;;;;;4.28;1.40;;;;;;;;;;5002451;28;95174;-80
2023/12/21 01:10:42;;;;;;;4.22;1.20;;;;;;;;;;5016008;28;95226;-80
2023/12/21 01:13:09;;;;;;;2.72;1.10;;;;;;;;;;5001301;28;94973;-79
2023/12/21 01:15:36;;;;;;;3.42;1.02;;;;;;;;;;4984065;28;95215;-79
2023/12/21 01:18:02;;;;;;;5.97;1.25;;;;;;;;;;5003704;28;92007;-81
2023/12/21 01:20:29;;;;;;;4.30;1.42;;;;;;;;;;4983300;28;95688;-79
2023/12/21 01:22:55;;;;;;;5.35;1.35;;;;;;;;;;5008340;28;92737;-78
2023/12/21 01:25:22;;;;;;;5.28;1.30;;;;;;;;;;5009815;28;92795;-80
2023/12/21 01:27:48;;;;;;;4.10;1.13;;;;;;;;;;5000354;28;93028;-79
2023/12/21 01:30:15;;;;;;;3.92;1.20;;;;;;;;;;4999715;28;92712;-79
2023/12/21 01:32:42;;;;;;;3.08;1.10;;;;;;;;;;5002515;28;93325;-80
2023/12/21 01:35:09;;;;;;;5.05;1.20;;;;;;;;;;5008409;28;95550;-79
2023/12/21 01:37:36;;;;;;;3.47;1.10;;;;;;;;;;5009088;27;92437;-79
2023/12/21 01:40:03;;;;;;;5.05;1.30;;;;;;;;;;5003379;28;92393;-80
2023/12/21 01:42:30;;;;;;;3.38;1.02;;;;;;;;;;4988626;28;92829;-80
2023/12/21 01:44:57;;;;;;;4.10;1.20;;;;;;;;;;5013139;28;94759;-80
2023/12/21 01:47:23;;;;;;;4.07;1.10;;;;;;;;;;5000909;28;92733;-80
2023/12/21 01:49:50;;;;;;;4.95;1.30;;;;;;;;;;5018083;28;92796;-80
2023/12/21 01:52:17;;;;;;;3.30;1.15;;;;;;;;;;5002095;28;94872;-80
2023/12/21 01:54:43;;;;;;;6.28;1.40;;;;;;;;;;5005575;28;95056;-80
2023/12/21 01:57:10;;;;;;;5.00;1.30;;;;;;;;;;5012268;28;92969;-80
2023/12/21 01:59:38;;;;;;;4.38;1.30;;;;;;;;;;5015127;28;95389;-79
2023/12/21 02:02:04;;;;;;;4.78;1.30;;;;;;;;;;5003003;28;93204;-81
2023/12/21 02:04:31;;;;;;;4.72;1.20;;;;;;;;;;5016496;28;94720;-80
2023/12/21 02:06:58;;;;;;;7.10;1.55;;;;;;;;;;5016745;28;94906;-79
2023/12/21 02:09:25;;;;;;;6.75;1.30;;;;;;;;;;5000374;28;92378;-80
2023/12/21 02:11:52;;;;;;;6.32;1.40;;;;;;;;;;5017424;28;92540;-80
2023/12/21 02:14:18;;;;;;;9.38;1.30;;;;;;;;;;5000844;28;93008;-79
2023/12/21 02:16:48;;;;;;;4.88;1.58;;;;;;;;;;4989744;28;91869;-79
2023/12/21 02:19:15;;;;;;;7.35;1.30;;;;;;;;;;5011090;27;93044;-78
2023/12/21 02:21:43;;;;;;;5.70;1.33;;;;;;;;;;5041724;27;95127;-79
2023/12/21 02:24:13;;;;;;;6.05;1.40;;;;;;;;;;5004634;28;94842;-80
2023/12/21 02:26:40;;;;;;;7.78;1.70;;;;;;;;;;5001204;28;92824;-79
2023/12/21 02:29:06;;;;;;;4.63;1.20;;;;;;;;;;5001586;28;92162;-80
2023/12/21 02:31:33;;;;;;;6.60;1.40;;;;;;;;;;5014075;28;92395;-80
2023/12/21 02:33:59;;;;;;;5.82;1.30;;;;;;;;;;5036725;27;92734;-79
2023/12/21 02:36:26;;;;;;;6.25;1.27;;;;;;;;;;4997104;28;92983;-79
2023/12/21 02:38:53;;;;;;;3.90;1.05;;;;;;;;;;4986592;28;95382;-79
2023/12/21 02:41:20;;;;;;;7.60;1.42;;;;;;;;;;4980251;28;94039;-79
2023/12/21 02:43:46;;;;;;;6.30;1.30;;;;;;;;;;4998530;28;92261;-79
2023/12/21 02:46:13;;;;;;;7.30;1.60;;;;;;;;;;5001992;28;92477;-79
2023/12/21 02:48:39;;;;;;;5.25;1.30;;;;;;;;;;4999625;28;94677;-78
2023/12/21 02:51:06;;;;;;;5.72;1.30;;;;;;;;;;5000910;28;94570;-79
2023/12/21 02:53:32;;;;;;;6.40;1.42;;;;;;;;;;4999432;28;95147;-79
2023/12/21 02:55:59;;;;;;;5.88;1.25;;;;;;;;;;4999434;28;92244;-79
2023/12/21 02:58:25;;;;;;;9.35;1.52;;;;;;;;;;4998473;28;95637;-79
2023/12/21 03:00:52;;;;;;;6.50;1.50;;;;;;;;;;4999731;28;93186;-79
2023/12/21 03:03:19;;;;;;;5.95;1.23;;;;;;;;;;4999627;28;92071;-79
2023/12/21 03:05:46;;;;;;;5.57;1.40;;;;;;;;;;5003833;28;93001;-79
2023/12/21 03:08:12;;;;;;;5.68;1.35;;;;;;;;;;4997800;28;92473;-79
2023/12/21 03:10:39;;;;;;;4.28;1.30;;;;;;;;;;4999085;28;92466;-79
2023/12/21 03:13:05;;;;;;;6.35;1.58;;;;;;;;;;4994188;28;95140;-79
2023/12/21 03:15:32;;;;;;;6.47;1.27;;;;;;;;;;4996108;28;92405;-79
2023/12/21 03:17:59;;;;;;;4.70;1.25;;;;;;;;;;4979731;28;92781;-79
2023/12/21 03:20:25;;;;;;;6.10;1.30;;;;;;;;;;4978172;28;95519;-79
2023/12/21 03:22:52;;;;;;;6.50;1.45;;;;;;;;;;4996147;28;92834;-79
2023/12/21 03:25:18;;;;;;;5.20;1.30;;;;;;;;;;4998499;28;93194;-79
2023/12/21 03:27:47;;;;;;;6.80;1.40;;;;;;;;;;5002223;28;93136;-79
2023/12/21 03:30:13;;;;;;;6.10;1.33;;;;;;;;;;4999472;28;92253;-79
2023/12/21 03:32:42;;;;;;;6.32;1.30;;;;;;;;;;4982086;28;95600;-79
2023/12/21 03:35:09;;;;;;;6.15;1.40;;;;;;;;;;4984321;28;92590;-79
2023/12/21 03:37:37;;;;;;;11.50;1.70;;;;;;;;;;4978245;28;96623;-80
2023/12/21 03:40:06;;;;;;;7.18;1.50;;;;;;;;;;5005920;28;95257;-79
2023/12/21 03:42:32;;;;;;;7.78;1.50;;;;;;;;;;5014988;28;92673;-79
2023/12/21 03:44:59;;;;;;;8.68;1.63;;;;;;;;;;5000453;28;92663;-80
2023/12/21 03:47:25;;;;;;;7.22;1.67;;;;;;;;;;5012066;28;99703;-79
2023/12/21 03:49:52;;;;;;;7.25;1.40;;;;;;;;;;5007005;28;92691;-79
2023/12/21 03:52:18;;;;;;;7.57;1.70;;;;;;;;;;5016111;28;94690;-79
2023/12/21 03:54:45;;;;;;;7.72;1.70;;;;;;;;;;5012950;28;91677;-79
2023/12/21 03:57:12;;;;;;;7.68;1.60;;;;;;;;;;5008850;28;94177;-79
2023/12/21 03:59:38;;;;;;;7.20;1.40;;;;;;;;;;5004736;28;92920;-79
2023/12/21 04:02:05;;;;;;;8.25;1.60;;;;;;;;;;4980355;28;94556;-79
2023/12/21 04:04:32;;;;;;;6.45;1.35;;;;;;;;;;5019012;28;97426;-79
2023/12/21 04:06:58;;;;;;;9.55;1.70;;;;;;;;;;5018136;28;94514;-79
2023/12/21 04:09:25;;;;;;;7.45;1.50;;;;;;;;;;5033674;28;92224;-79
2023/12/21 04:11:52;;;;;;;6.57;1.60;;;;;;;;;;5008173;28;92478;-79
2023/12/21 04:14:18;;;;;;;7.28;1.30;;;;;;;;;;4998026;28;92441;-79
2023/12/21 04:16:45;;;;;;;8.10;1.42;;;;;;;;;;4987998;28;94720;-79
2023/12/21 04:19:11;;;;;;;9.05;1.70;;;;;;;;;;5010943;28;92152;-79
2023/12/21 04:21:41;;;;;;;8.32;1.73;;;;;;;;;;5000107;28;92531;-78
2023/12/21 04:24:08;;;;;;;6.13;1.30;;;;;;;;;;5014256;27;92620;-79
2023/12/21 04:26:34;;;;;;;6.13;1.55;;;;;;;;;;4996795;28;95102;-78
2023/12/21 04:29:01;;;;;;;7.28;1.48;;;;;;;;;;4999089;28;92679;-79
2023/12/21 04:31:27;;;;;;;8.40;1.50;;;;;;;;;;4997164;28;93229;-79
2023/12/21 04:33:54;;;;;;;8.45;1.52;;;;;;;;;;4996838;28;95271;-79
2023/12/21 04:36:20;;;;;;;7.25;1.63;;;;;;;;;;5000794;28;92839;-79
2023/12/21 04:38:52;;;;;;;8.13;1.55;;;;;;;;;;5018444;28;95264;-79
2023/12/21 04:41:19;;;;;;;7.40;1.40;;;;;;;;;;5007066;28;92054;-79
2023/12/21 04:43:46;;;;;;;8.35;1.35;;;;;;;;;;5003941;28;93152;-78
2023/12/21 04:46:12;;;;;;;6.13;1.50;;;;;;;;;;5001160;28;92818;-79
2023/12/21 04:48:39;;;;;;;6.43;1.60;;;;;;;;;;5001304;28;93130;-79
2023/12/21 04:51:05;;;;;;;9.45;1.33;;;;;;;;;;4988684;28;95163;-79
2023/12/21 04:53:32;;;;;;;8.13;1.50;;;;;;;;;;4990369;28;92800;-78
2023/12/21 04:56:02;;;;;;;7.63;1.63;;;;;;;;;;4985810;28;92099;-78
2023/12/21 04:58:28;;;;;;;5.78;1.40;;;;;;;;;;4998772;28;96484;-78
2023/12/21 05:00:55;;;;;;;4.82;1.13;;;;;;;;;;4997606;28;92176;-78
2023/12/21 05:03:21;;;;;;;5.93;1.40;;;;;;;;;;4983251;28;92980;-78
2023/12/21 05:05:48;;;;;;;7.80;1.60;;;;;;;;;;5011346;28;92822;-79
2023/12/21 05:08:14;;;;;;;7.45;1.40;;;;;;;;;;5001198;28;91576;-78
2023/12/21 05:10:41;;;;;;;8.20;1.70;;;;;;;;;;5002426;28;92183;-79
2023/12/21 05:13:08;;;;;;;6.72;1.42;;;;;;;;;;5017896;28;94649;-78
2023/12/21 05:15:34;;;;;;;6.63;1.40;;;;;;;;;;5002385;28;94734;-79
2023/12/21 05:18:01;;;;;;;4.97;1.45;;;;;;;;;;5002187;28;92722;-79
2023/12/21 05:20:28;;;;;;;5.45;1.30;;;;;;;;;;5000877;28;92507;-79
2023/12/21 05:22:54;;;;;;;6.32;1.35;;;;;;;;;;5001060;28;94551;-79
2023/12/21 05:25:26;;;;;;;6.97;1.20;;;;;;;;;;4984723;28;94705;-79
2023/12/21 05:27:53;;;;;;;5.47;1.20;;;;;;;;;;5001053;28;92252;-79
2023/12/21 05:30:20;;;;;;;8.50;1.17;;;;;;;;;;4999668;28;92911;-79
2023/12/21 05:32:47;;;;;;;14.88;2.25;;;;;;;;;;5003222;28;92004;-79
2023/12/21 05:35:14;;;;;;;13.65;1.48;;;;;;;;;;5009148;28;92720;-79
2023/12/21 05:37:41;;;;;;;7.68;1.30;;;;;;;;;;5023808;28;94264;-78
2023/12/21 05:40:08;;;;;;;12.60;1.80;;;;;;;;;;4996871;28;94895;-79
2023/12/21 05:42:35;;;;;;;8.18;1.50;;;;;;;;;;5000813;28;96075;-79
2023/12/21 05:45:01;;;;;;;6.80;1.20;;;;;;;;;;4984031;28;95401;-79
2023/12/21 05:47:28;;;;;;;6.95;1.40;;;;;;;;;;5010364;28;92184;-79
2023/12/21 05:49:54;;;;;;;9.80;1.77;;;;;;;;;;5004756;28;93614;-79
2023/12/21 05:52:21;;;;;;;6.57;1.60;;;;;;;;;;5000899;28;93289;-79
2023/12/21 05:54:48;;;;;;;5.22;1.23;;;;;;;;;;5000925;28;92090;-79
2023/12/21 05:57:15;;;;;;;5.30;1.20;;;;;;;;;;5001468;28;95548;-81
2023/12/21 05:59:42;;;;;;;7.10;1.30;;;;;;;;;;4987225;28;95426;-80
2023/12/21 06:02:09;;;;;;;6.43;1.20;;;;;;;;;;5017841;28;92707;-80
2023/12/21 06:04:36;;;;;;;7.60;1.50;;;;;;;;;;4984097;28;97199;-79
2023/12/21 06:07:03;;;;;;;5.32;1.27;;;;;;;;;;5002194;28;92428;-79
2023/12/21 06:09:29;;;;;;;5.72;1.30;;;;;;;;;;5012233;28;94824;-79
2023/12/21 06:11:56;;;;;;;9.15;1.40;;;;;;;;;;5037086;27;95003;-80
2023/12/21 06:14:22;;;;;;;7.35;1.30;;;;;;;;;;5050123;27;92248;-80
2023/12/21 06:16:49;;;;;;;7.22;1.20;;;;;;;;;;5006765;28;92684;-79
2023/12/21 06:19:15;;;;;;;11.40;1.40;;;;;;;;;;5011042;27;92919;-80
2023/12/21 06:21:42;;;;;;;7.70;1.45;;;;;;;;;;5017863;28;91356;-79
2023/12/21 06:24:09;;;;;;;6.05;1.27;;;;;;;;;;5002473;27;92836;-79
2023/12/21 06:26:39;;;;;;;6.75;1.20;;;;;;;;;;4999963;28;92281;-79
2023/12/21 06:29:06;;;;;;;6.90;1.52;;;;;;;;;;5007466;28;94793;-80
2023/12/21 06:31:33;;;;;;;7.20;1.40;;;;;;;;;;5007638;28;93734;-79
2023/12/21 06:34:01;;;;;;;4.78;1.20;;;;;;;;;;5000576;28;92205;-80
2023/12/21 06:36:29;;;;;;;7.00;1.30;;;;;;;;;;4999583;28;95072;-79
2023/12/21 06:38:55;;;;;;;5.97;1.45;;;;;;;;;;4994511;28;92954;-79
2023/12/21 06:41:22;;;;;;;7.78;1.60;;;;;;;;;;4997295;28;92289;-79
2023/12/21 06:43:48;;;;;;;5.22;1.30;;;;;;;;;;5003756;28;93070;-79
2023/12/21 06:46:15;;;;;;;5.43;1.10;;;;;;;;;;5017177;28;91522;-79
2023/12/21 06:48:42;;;;;;;5.68;1.48;;;;;;;;;;5001630;28;91990;-80
2023/12/21 06:51:08;;;;;;;6.07;1.30;;;;;;;;;;5000119;28;93184;-79
2023/12/21 06:53:35;;;;;;;4.60;1.20;;;;;;;;;;4997982;28;96498;-79
2023/12/21 06:56:02;;;;;;;4.82;1.20;;;;;;;;;;5001207;28;95140;-79
2023/12/21 06:58:48;;;;;;;6.93;1.30;;;;;;;;;;5014401;27;93461;-79
2023/12/21 07:01:15;;;;;;;7.07;1.60;;;;;;;;;;5010231;28;92172;-78
2023/12/21 07:03:41;;;;;;;4.97;1.40;;;;;;;;;;5007151;27;92729;-79
2023/12/21 07:06:09;;;;;;;6.72;1.20;;;;;;;;;;5018516;28;95064;-79
2023/12/21 07:08:36;;;;;;;;;;;;;;;;;;4983502;28;95225;-79
2023/12/21 07:11:02;;;;;;;4.60;1.25;;;;;;;;;;5009099;28;98916;-79
2023/12/21 07:13:29;;;;;;;5.13;0.95;;;;;;;;;;5007718;28;92078;-79
2023/12/21 07:15:55;;;;;;;6.40;1.20;;;;;;;;;;4994836;28;96864;-78
2023/12/21 07:18:22;;;;;;;3.60;1.00;;;;;;;;;;4997223;28;96781;-79
2023/12/21 07:20:48;;;;;;;3.92;1.30;;;;;;;;;;5001054;28;92898;-79
2023/12/21 07:23:15;;;;;;;7.30;1.30;;;;;;;;;;5026118;28;94241;-79
2023/12/21 07:25:42;;;;;;;6.15;1.23;;;;;;;;;;5014290;28;92749;-78
2023/12/21 07:28:09;;;;;;;6.80;1.30;;;;;;;;;;4994926;28;92300;-79
2023/12/21 07:30:35;;;;;;;5.15;1.10;;;;;;;;;;4979929;28;94832;-79
2023/12/21 07:33:02;;;;;;;5.10;1.20;;;;;;;;;;4980749;28;92043;-79
2023/12/21 07:35:32;;;;;;;6.20;1.30;;;;;;;;;;4991910;28;92443;-78
2023/12/21 07:37:58;;;;;;;5.40;1.30;;;;;;;;;;5000205;28;92774;-79
2023/12/21 07:40:25;;;;;;;6.60;1.20;;;;;;;;;;4992611;28;92694;-80
2023/12/21 07:42:51;;;;;;;5.68;1.27;;;;;;;;;;4999097;28;94703;-79
2023/12/21 07:45:18;;;;;;;4.75;1.17;;;;;;;;;;4999933;28;92566;-79
2023/12/21 07:47:45;;;;;;;5.53;1.10;;;;;;;;;;5002129;28;92414;-79
2023/12/21 07:50:11;;;;;;;7.45;1.20;;;;;;;;;;4999651;28;93197;-79
2023/12/21 07:52:38;;;;;;;4.13;1.23;;;;;;;;;;5000516;28;92550;-79
2023/12/21 07:55:06;;;;;;;5.22;1.05;;;;;;;;;;4994886;28;95022;-79
2023/12/21 07:57:33;;;;;;;6.45;1.33;;;;;;;;;;4979018;28;95350;-78
2023/12/21 08:00:02;;;;;;;5.88;1.50;;;;;;;;;;4978633;28;91450;-78
2023/12/21 08:02:33;;;;;;;10.18;1.45;;;;;;;;;;4978530;28;92378;-78
2023/12/21 08:05:00;;;;;;;5.65;1.20;;;;;;;;;;4979681;28;92638;-78
2023/12/21 08:07:27;;;;;;;4.20;0.90;;;;;;;;;;4982866;28;96047;-77
2023/12/21 08:09:53;;;;;;;4.38;1.00;;;;;;;;;;4984439;28;96863;-78
2023/12/21 08:12:20;;;;;;;7.13;1.00;;;;;;;;;;4981634;28;92152;-80
2023/12/21 08:14:46;;;;;;;6.57;1.30;;;;;;;;;;5000681;28;92230;-78
2023/12/21 08:17:13;;;;;;;7.80;1.00;;;;;;;;;;5001270;28;92671;-79
2023/12/21 08:19:40;;;;;;;4.13;1.00;;;;;;;;;;5000106;28;92243;-78
2023/12/21 08:22:06;;;;;;;5.82;1.10;;;;;;;;;;4995623;28;93297;-79
2023/12/21 08:24:33;;;;;;;8.27;1.48;;;;;;;;;;4993731;28;92295;-78
2023/12/21 08:27:00;;;;;;;4.80;0.90;;;;;;;;;;5000523;28;92386;-80
2023/12/21 08:29:26;;;;;;;5.88;0.90;;;;;;;;;;4999531;28;92365;-78
2023/12/21 08:31:53;;;;;;;3.08;0.75;;;;;;;;;;5002142;28;95588;-80
2023/12/21 08:34:22;;;;;;;4.90;1.02;;;;;;;;;;5000494;28;94848;-79
2023/12/21 08:36:49;;;;;;;5.03;0.93;;;;;;;;;;4992698;28;94962;-79
2023/12/21 08:39:16;;;;;;;6.18;0.98;;;;;;;;;;5021434;27;92839;-79
2023/12/21 08:41:42;;;;;;;3.10;0.85;;;;;;;;;;5015542;28;92671;-78
2023/12/21 08:44:10;;;;;;;2.90;1.00;;;;;;;;;;5017255;27;92742;-79
2023/12/21 08:46:40;;;;;;;4.78;1.15;;;;;;;;;;4999021;28;94068;-77
2023/12/21 08:49:07;;;;;;;4.30;1.20;;;;;;;;;;5000842;27;92818;-78
2023/12/21 08:51:34;;;;;;;3.63;0.77;;;;;;;;;;4979119;28;93016;-80
2023/12/21 08:54:00;;;;;;;4.07;1.00;;;;;;;;;;5019093;28;92634;-78
2023/12/21 08:56:27;;;;;;;4.68;1.00;;;;;;;;;;5033936;27;101390;-79
2023/12/21 08:58:56;;;;;;;2.67;0.80;;;;;;;;;;5011467;28;92322;-80
2023/12/21 09:01:23;;;;;;;3.97;1.00;;;;;;;;;;5000238;28;93133;-79
2023/12/21 09:03:49;;;;;;;3.80;0.88;;;;;;;;;;4998373;28;95530;-79
2023/12/21 09:06:16;;;;;;;3.53;0.77;;;;;;;;;;5015270;28;92563;-79
2023/12/21 09:08:42;;;;;;;4.10;0.95;;;;;;;;;;4998343;28;93751;-78
2023/12/21 09:11:09;;;;;;;3.95;0.90;;;;;;;;;;4999921;28;93055;-81
2023/12/21 09:13:36;;;;;;;2.60;0.88;;;;;;;;;;5000699;28;91473;-80
2023/12/21 09:16:02;;;;;;;2.90;0.90;;;;;;;;;;5018250;28;94830;-80
2023/12/21 09:18:30;;;;;;;3.60;0.90;;;;;;;;;;4998534;28;92637;-79
2023/12/21 09:20:57;;;;;;;2.83;0.90;;;;;;;;;;4998352;28;94720;-79
2023/12/21 09:23:24;;;;;;;4.57;1.00;;;;;;;;;;4998159;28;92751;-78
2023/12/21 09:25:50;;;;;;;3.30;0.70;;;;;;;;;;4997984;28;92417;-79
2023/12/21 09:28:19;;;;;;;4.68;1.20;;;;;;;;;;4997652;28;92529;-79
2023/12/21 09:30:45;;;;;;;4.30;1.00;;;;;;;;;;4975460;28;94853;-78
2023/12/21 09:33:12;;;;;;;3.75;0.80;;;;;;;;;;4999821;27;93487;-80
2023/12/21 09:35:39;;;;;;;4.70;1.00;;;;;;;;;;5002765;28;92774;-78
2023/12/21 09:38:05;;;;;;;4.35;0.90;;;;;;;;;;4998827;28;91629;-77
2023/12/21 09:40:36;;;;;;;4.28;0.82;;;;;;;;;;4995073;28;93386;-76
2023/12/21 09:43:03;;;;;;;4.47;0.90;;;;;;;;;;4999318;27;93043;-77
2023/12/21 09:45:41;;;;;;;4.93;0.90;;;;;;;;;;4995624;28;94909;-79
2023/12/21 09:48:07;;;;;;;;;;;;;;;;;;5016673;27;95066;-80
2023/12/21 09:50:34;;;;;;;4.07;0.88;;;;;;;;;;4997762;28;116406;-80
2023/12/21 09:53:01;;;;;;;4.10;0.85;;;;;;;;;;4978140;28;92269;-78
2023/12/21 09:55:30;;;;;;;3.30;0.70;;;;;;;;;;4977983;28;92757;-78
2023/12/21 09:57:57;;;;;;;3.72;0.75;;;;;;;;;;5000951;28;94734;-79
2023/12/21 10:00:24;;;;;;;2.85;0.80;;;;;;;;;;4996742;28;94507;-79
2023/12/21 10:02:50;;;;;;;3.95;1.00;;;;;;;;;;4999361;28;91652;-80
2023/12/21 10:05:17;;;;;;;4.18;0.98;;;;;;;;;;4998084;28;92574;-79
2023/12/21 10:07:44;;;;;;;3.10;0.75;;;;;;;;;;4997049;28;95514;-79
2023/12/21 10:10:11;;;;;;;4.53;0.95;;;;;;;;;;4993643;28;97684;-79
2023/12/21 10:12:38;;;;;;;;;;;;;;;;;;5010916;28;92739;-80
2023/12/21 10:15:06;;;;;;;4.28;0.82;;;;;;;;;;5000847;28;92735;-78
2023/12/21 10:17:33;;;;;;;3.78;0.90;;;;;;;;;;5025111;27;94925;-78
2023/12/21 10:20:00;;;;;;;3.08;0.70;;;;;;;;;;4983222;28;92413;-79
2023/12/21 10:22:30;;;;;;;3.30;0.80;;;;;;;;;;5005048;28;97486;-78
2023/12/21 10:24:56;;;;;;;2.95;0.80;;;;;;;;;;5019141;27;92787;-78
2023/12/21 10:27:25;;;;;;;2.80;0.70;;;;;;;;;;5017710;28;95783;-79
2023/12/21 10:29:53;;;;;;;2.15;0.70;;;;;;;;;;4998905;28;93580;-79
2023/12/21 10:32:20;;;;;;;5.43;1.05;;;;;;;;;;4985865;28;92855;-79
2023/12/21 10:34:47;;;;;;;3.47;0.77;;;;;;;;;;5016858;28;94510;-78
2023/12/21 10:37:17;;;;;;;1.92;0.65;;;;;;;;;;5007205;28;92571;-79
2023/12/21 10:39:43;;;;;;;3.28;0.70;;;;;;;;;;4982265;28;92494;-80
2023/12/21 10:42:13;;;;;;;2.65;0.80;;;;;;;;;;5001392;28;93718;-79
2023/12/21 10:44:43;;;;;;;2.63;0.60;;;;;;;;;;5033334;27;92396;-79
2023/12/21 10:47:10;;;;;;;3.08;0.80;;;;;;;;;;5017638;28;92963;-78
2023/12/21 10:49:38;;;;;;;2.60;0.70;;;;;;;;;;5004744;28;92676;-78
2023/12/21 10:52:05;;;;;;;2.22;0.77;;;;;;;;;;4997647;28;91818;-80
2023/12/21 10:54:33;;;;;;;4.82;0.90;;;;;;;;;;4997342;28;92531;-78
2023/12/21 10:57:00;;;;;;;3.35;0.75;;;;;;;;;;4997273;28;93223;-80
2023/12/21 10:59:26;;;;;;;3.65;0.70;;;;;;;;;;4986682;28;94805;-79
2023/12/21 11:01:53;;;;;;;2.55;0.70;;;;;;;;;;4997420;28;94907;-80
2023/12/21 11:04:22;;;;;;;2.30;0.80;;;;;;;;;;4998201;28;94510;-79
2023/12/21 11:06:49;;;;;;;2.38;0.60;;;;;;;;;;4996727;28;95248;-79
2023/12/21 11:09:19;;;;;;;2.97;0.80;;;;;;;;;;4985747;28;93637;-79
2023/12/21 11:11:46;;;;;;;3.00;0.73;;;;;;;;;;5006991;28;92495;-80
2023/12/21 11:14:13;;;;;;;1.77;0.60;;;;;;;;;;4981195;27;94385;-79
2023/12/21 11:16:50;;;;;;;1.67;0.55;;;;;;;;;;4998045;28;92315;-80
2023/12/21 11:19:20;;;;;;;3.00;0.70;;;;;;;;;;4997201;28;92488;-79
2023/12/21 11:21:47;;;;;;;1.65;0.63;;;;;;;;;;4996777;28;92215;-81
2023/12/21 11:24:20;;;;;;;3.65;0.80;;;;;;;;;;4971185;28;98311;-80
2023/12/21 11:26:48;;;;;;;2.95;0.90;;;;;;;;;;5007745;28;92573;-80
2023/12/21 11:29:14;;;;;;;1.98;0.68;;;;;;;;;;5006281;28;95141;-79
2023/12/21 11:31:41;;;;;;;3.35;0.80;;;;;;;;;;4997216;28;92567;-80
2023/12/21 11:34:08;;;;;;;;;;;;;;;;;;4996824;28;95463;-80
2023/12/21 11:36:35;;;;;;;1.85;0.60;;;;;;;;;;4996973;28;109036;-80
2023/12/21 11:39:07;;;;;;;3.63;0.70;;;;;;;;;;4995583;28;92605;-80
2023/12/21 11:41:34;;;;;;;3.38;0.70;;;;;;;;;;4996661;28;92885;-80
2023/12/21 11:44:01;;;;;;;4.20;0.80;;;;;;;;;;5011654;28;94562;-79
2023/12/21 11:46:27;;;;;;;2.75;0.90;;;;;;;;;;5018547;28;94719;-80
2023/12/21 11:48:54;;;;;;;3.53;1.00;;;;;;;;;;5014616;28;95126;-80
2023/12/21 11:51:21;;;;;;;3.97;0.75;;;;;;;;;;5019267;28;92429;-80
2023/12/21 11:53:47;;;;;;;3.60;0.98;;;;;;;;;;4989719;28;94639;-81
2023/12/21 11:56:14;;;;;;;5.20;0.90;;;;;;;;;;4993956;28;94740;-81
2023/12/21 11:58:41;;;;;;;2.53;0.80;;;;;;;;;;4997261;28;92538;-81
2023/12/21 12:01:08;;;;;;;;;;;;;;;;;;4999318;28;95078;-81
2023/12/21 12:03:37;;;;;;;5.03;0.85;;;;;;;;;;4998786;28;109274;-80
2023/12/21 12:06:04;;;;;;;3.22;0.70;;;;;;;;;;4980914;27;91867;-79
2023/12/21 12:08:32;;;;;;;3.33;0.65;;;;;;;;;;5022241;28;94398;-81
2023/12/21 12:10:59;;;;;;;3.45;0.90;;;;;;;;;;5020048;27;92373;-81
2023/12/21 12:13:26;;;;;;;2.97;0.70;;;;;;;;;;5019371;27;95452;-80
2023/12/21 12:15:52;;;;;;;3.72;0.90;;;;;;;;;;5018415;27;96074;-80
2023/12/21 12:18:21;;;;;;;3.58;0.70;;;;;;;;;;5018191;27;92359;-80
2023/12/21 12:20:48;;;;;;;2.53;0.70;;;;;;;;;;5020405;27;92474;-80
2023/12/21 12:23:14;;;;;;;;;;;;;;;;;;5020560;27;93246;-81
2023/12/21 12:25:42;;;;;;;3.03;0.80;;;;;;;;;;5020782;28;92590;-80
2023/12/21 12:28:17;;;;;;;4.75;0.82;;;;;;;;;;5018294;27;95511;-81
2023/12/21 12:30:44;;;;;;;2.28;0.68;;;;;;;;;;5021995;27;93261;-80
2023/12/21 12:33:12;;;;;;;3.42;0.70;;;;;;;;;;5002408;28;93399;-80
2023/12/21 12:35:40;;;;;;;6.05;0.80;;;;;;;;;;5033908;27;92726;-80
2023/12/21 12:38:07;;;;;;;4.28;0.93;;;;;;;;;;5018274;27;95167;-80
2023/12/21 12:40:34;;;;;;;;;;;;;;;;;;5019151;28;95089;-79
2023/12/21 12:43:01;;;;;;;2.42;0.60;;;;;;;;;;5015664;28;92911;-79
2023/12/21 12:45:27;;;;;;;4.20;0.80;;;;;;;;;;5007474;27;92850;-80
2023/12/21 12:47:54;;;;;;;2.60;0.80;;;;;;;;;;4997565;28;92723;-80
2023/12/21 12:50:23;;;;;;;3.55;0.73;;;;;;;;;;4998929;27;93245;-79
2023/12/21 12:52:49;;;;;;;2.92;0.80;;;;;;;;;;5001455;28;92601;-79
2023/12/21 12:55:17;;;;;;;3.08;0.60;;;;;;;;;;5000012;28;91962;-80
2023/12/21 12:57:49;;;;;;;1.95;0.70;;;;;;;;;;5002597;28;93716;-77
2023/12/21 13:00:16;;;;;;;2.72;0.60;;;;;;;;;;4998451;27;92728;-77
2023/12/21 13:02:43;;;;;;;;;;;;;;;;;;4978614;28;97861;-79
2023/12/21 13:05:10;;;;;;;2.15;0.70;;;;;;;;;;4999782;28;92379;-79
2023/12/21 13:07:39;;;;;;;;;;;;;;;;;;4999575;28;92448;-80
2023/12/21 13:10:05;;;;;;;2.45;0.70;;;;;;;;;;5014226;27;115255;-81
2023/12/21 13:12:36;;;;;;;3.90;0.70;;;;;;;;;;4998601;28;98925;-81
2023/12/21 13:15:03;;;;;;;3.92;0.88;;;;;;;;;;5009601;28;92321;-81
2023/12/21 13:17:30;;;;;;;2.42;0.93;;;;;;;;;;5020175;27;92312;-81
2023/12/21 13:19:56;;;;;;;3.03;0.82;;;;;;;;;;5003923;28;93263;-80
2023/12/21 13:22:23;;;;;;;3.03;0.77;;;;;;;;;;5018281;27;92714;-81
2023/12/21 13:24:50;;;;;;;3.70;0.80;;;;;;;;;;5019535;27;92553;-80
2023/12/21 13:27:16;;;;;;;2.50;0.60;;;;;;;;;;5016558;28;94595;-80
2023/12/21 13:29:43;;;;;;;3.22;0.70;;;;;;;;;;5020043;27;93202;-80
2023/12/21 13:32:10;;;;;;;2.85;0.70;;;;;;;;;;5017935;27;92281;-80
2023/12/21 13:34:39;;;;;;;2.38;0.70;;;;;;;;;;5020902;27;93955;-80
2023/12/21 13:37:06;;;;;;;2.38;0.73;;;;;;;;;;5018988;27;94134;-81
2023/12/21 13:39:33;;;;;;;4.20;0.95;;;;;;;;;;5019741;28;92927;-82
2023/12/21 13:42:00;;;;;;;3.75;0.90;;;;;;;;;;5003180;28;93413;-80
2023/12/21 13:44:28;;;;;;;3.63;0.80;;;;;;;;;;5019494;27;91798;-80
2023/12/21 13:46:58;;;;;;;2.40;0.63;;;;;;;;;;5002916;28;92257;-79
2023/12/21 13:49:26;;;;;;;5.03;0.70;;;;;;;;;;5018516;27;93134;-80
2023/12/21 13:51:53;;;;;;;2.00;0.80;;;;;;;;;;5016173;27;94891;-80
2023/12/21 13:54:23;;;;;;;3.83;0.80;;;;;;;;;;5013633;27;97309;-81
2023/12/21 13:56:49;;;;;;;2.67;0.80;;;;;;;;;;5001265;28;93151;-81
2023/12/21 13:59:33;;;;;;;2.60;0.70;;;;;;;;;;4993337;28;95494;-81
2023/12/21 14:02:00;;;;;;;5.45;1.00;;;;;;;;;;4977705;28;93728;-80
2023/12/21 14:04:27;;;;;;;4.47;0.88;;;;;;;;;;4997969;28;92179;-80
2023/12/21 14:06:53;;;;;;;3.40;0.80;;;;;;;;;;5014454;28;94291;-82
2023/12/21 14:09:20;;;;;;;4.95;1.00;;;;;;;;;;4998331;28;94815;-80
2023/12/21 14:11:47;;;;;;;2.75;0.75;;;;;;;;;;4998155;28;92152;-79
2023/12/21 14:14:13;;;;;;;3.72;0.90;;;;;;;;;;4998989;28;94733;-81
2023/12/21 14:16:40;;;;;;;4.32;0.90;;;;;;;;;;5014020;28;95886;-80
2023/12/21 14:19:06;;;;;;;8.35;1.10;;;;;;;;;;5013675;28;92470;-82
2023/12/21 14:21:33;;;;;;;6.57;1.08;;;;;;;;;;5007199;28;92637;-80
2023/12/21 14:24:00;;;;;;;5.53;1.20;;;;;;;;;;5015900;28;92804;-79
2023/12/21 14:26:27;;;;;;;6.40;0.93;;;;;;;;;;4999872;28;99101;-82
2023/12/21 14:28:53;;;;;;;6.20;1.20;;;;;;;;;;5005815;28;92979;-81
2023/12/21 14:31:23;;;;;;;7.57;1.20;;;;;;;;;;5008536;28;92462;-80
2023/12/21 14:33:50;;;;;;;6.68;1.10;;;;;;;;;;4998327;28;94490;-80
2023/12/21 14:36:18;;;;;;;8.30;1.60;;;;;;;;;;4997394;28;96018;-79
2023/12/21 14:38:45;;;;;;;4.60;1.10;;;;;;;;;;4989930;28;92262;-79
2023/12/21 14:41:13;;;;;;;4.60;0.93;;;;;;;;;;5007161;28;95031;-79
2023/12/21 14:43:39;;;;;;;6.72;1.20;;;;;;;;;;5013545;27;92258;-79
2023/12/21 14:46:06;;;;;;;6.68;1.20;;;;;;;;;;5003864;28;92350;-81